Time;durP1;ratioP1;P1;durP2;ratioP2;P2;SDS_P1;SDS_P2;PMS_P1;PMS_P2;Temp;Humidity;BMP_temperature;BMP_pressure;BME280_temperature;BME280_humidity;BME280_pressure;Samples;Min_cycle;Max_cycle;Signal;HPM_P1;HPM_P2
2023/11/01 00:01:37;;;;;;;37.13;35.13;;;;;;;17.98;100.00;100445.22;5052267;28;20436;-74
2023/11/01 00:04:04;;;;;;;41.63;39.42;;;;;;;18.50;100.00;100423.63;5058708;28;20504;-78
2023/11/01 00:06:32;;;;;;;37.72;35.53;;;;;;;18.44;100.00;100410.44;5051872;28;20531;-78
2023/11/01 00:08:59;;;;;;;42.83;36.95;;;;;;;18.05;100.00;100435.03;5060614;28;20057;-78
2023/11/01 00:11:32;;;;;;;30.33;28.63;;;;;;;18.08;100.00;100426.44;5060375;28;20538;-78
2023/11/01 00:13:59;;;;;;;33.13;31.02;;;;;;;18.00;100.00;100435.00;5058812;28;20052;-74
2023/11/01 00:16:26;;;;;;;31.88;29.77;;;;;;;17.60;100.00;100442.53;5069546;28;20074;-75
2023/11/01 00:18:54;;;;;;;34.58;32.38;;;;;;;17.47;100.00;100448.38;5053695;28;20053;-75
2023/11/01 00:21:21;;;;;;;30.42;28.63;;;;;;;17.46;100.00;100452.13;5051883;28;20049;-78
2023/11/01 00:24:05;;;;;;;32.38;30.27;;;;;;;17.60;100.00;100447.91;5050539;28;20516;-78
2023/11/01 00:26:31;;;;;;;31.15;29.25;;;;;;;17.27;100.00;100437.47;5051669;28;20519;-75
2023/11/01 00:28:59;;;;;;;31.30;29.40;;;;;;;17.32;100.00;100424.91;5065259;28;20056;-75
2023/11/01 00:31:26;;;;;;;60.47;57.50;;;;;;;17.30;100.00;100424.34;5059175;28;20048;-74
2023/11/01 00:33:53;;;;;;;215.10;202.30;;;;;;;17.26;100.00;100444.72;5062623;28;20548;-75
2023/11/01 00:36:20;;;;;;;165.82;156.23;;;;;;;17.21;100.00;100452.72;5056771;28;20048;-77
2023/11/01 00:38:47;;;;;;;123.60;117.00;;;;;;;17.34;100.00;100452.31;5055869;28;20493;-78
2023/11/01 00:41:15;;;;;;;96.68;91.50;;;;;;;17.45;100.00;100460.44;5062044;28;20053;-74
2023/11/01 00:43:43;;;;;;;93.30;88.30;;;;;;;17.45;100.00;100447.81;5055482;28;20055;-77
2023/11/01 00:46:10;;;;;;;79.07;74.57;;;;;;;17.42;100.00;100444.84;5061388;28;20048;-77
2023/11/01 00:48:37;;;;;;;66.82;63.00;;;;;;;17.35;100.00;100461.16;5060066;28;20579;-78
2023/11/01 00:51:05;;;;;;;63.25;59.65;;;;;;;17.15;100.00;100465.28;5061674;28;20425;-78
2023/11/01 00:53:48;;;;;;;32.50;30.38;;;;;;;17.34;100.00;100467.63;5055636;28;20055;-78
2023/11/01 00:56:32;;;;;;;;;;;;;;;17.44;100.00;100467.69;5062956;28;20056;-75
2023/11/01 00:58:59;;;;;;;41.25;39.13;;;;;;;17.36;100.00;100454.72;5060110;28;19972;-74
2023/11/01 01:01:26;;;;;;;48.65;46.53;;;;;;;17.20;100.00;100458.38;5059110;28;20045;-75
2023/11/01 01:03:53;;;;;;;177.05;166.98;;;;;;;17.08;100.00;100462.03;5061136;28;20436;-75
2023/11/01 01:06:22;;;;;;;153.23;144.43;;;;;;;17.12;100.00;100481.09;5062107;28;20054;-75
2023/11/01 01:08:58;;;;;;;117.25;110.95;;;;;;;17.25;100.00;100486.06;5059110;28;20055;-74
2023/11/01 01:11:25;;;;;;;117.50;111.40;;;;;;;17.21;100.00;100494.84;5059115;28;20412;-78
2023/11/01 01:13:53;;;;;;;83.93;79.43;;;;;;;17.17;100.00;100503.41;5059828;28;20041;-78
2023/11/01 01:16:20;;;;;;;32.95;31.13;;;;;;;17.14;100.00;100516.53;5061606;28;20048;-78
2023/11/01 01:18:48;;;;;;;35.00;32.88;;;;;;;17.11;100.00;100527.78;5059613;28;20433;-75
2023/11/01 01:21:17;;;;;;;36.50;34.60;;;;;;;16.97;100.00;100529.25;5050414;28;20045;-77
2023/11/01 01:23:44;;;;;;;32.75;30.95;;;;;;;17.06;100.00;100533.91;5053244;28;20056;-77
2023/11/01 01:26:16;;;;;;;35.75;33.75;;;;;;;16.99;100.00;100540.53;5058866;28;20052;-75
2023/11/01 01:28:43;;;;;;;142.65;135.40;;;;;;;16.91;100.00;100539.94;5062703;28;20048;-75
2023/11/01 01:31:13;;;;;;;145.45;138.10;;;;;;;16.91;100.00;100549.84;5057087;28;20931;-75
2023/11/01 01:33:45;;;;;;;170.07;161.18;;;;;;;16.96;100.00;100543.72;5051190;28;20052;-74
2023/11/01 01:36:15;;;;;;;157.13;149.23;;;;;;;16.98;100.00;100536.25;5062615;28;20135;-75
2023/11/01 01:38:42;;;;;;;147.23;139.93;;;;;;;17.13;100.00;100534.53;5065889;28;20045;-75
2023/11/01 01:41:09;;;;;;;146.07;138.65;;;;;;;17.03;100.00;100538.97;5068004;28;20040;-74
2023/11/01 01:43:36;;;;;;;130.80;124.20;;;;;;;17.05;100.00;100526.91;5062612;28;20052;-74
2023/11/01 01:46:08;;;;;;;153.88;146.07;;;;;;;17.12;100.00;100535.56;5055589;28;20448;-75
2023/11/01 01:48:47;;;;;;;133.43;126.82;;;;;;;17.09;100.00;100541.44;5059804;28;20052;-75
2023/11/01 01:51:14;;;;;;;136.98;130.20;;;;;;;17.42;100.00;100549.53;5056506;28;20052;-75
2023/11/01 01:53:46;;;;;;;43.65;41.55;;;;;;;17.40;100.00;100572.09;5059221;28;20413;-75
2023/11/01 01:56:15;;;;;;;48.15;45.75;;;;;;;17.37;100.00;100571.78;5055142;28;20052;-75
2023/11/01 01:58:43;;;;;;;36.63;34.83;;;;;;;17.49;100.00;100580.50;5057512;28;20049;-75
2023/11/01 02:01:10;;;;;;;44.55;42.35;;;;;;;17.41;100.00;100580.94;5058659;28;20041;-75
2023/11/01 02:03:37;;;;;;;39.10;37.20;;;;;;;17.26;100.00;100581.59;5066189;28;20053;-74
2023/11/01 02:06:07;;;;;;;43.25;41.17;;;;;;;17.21;100.00;100580.75;5058464;28;20044;-74
2023/11/01 02:08:35;;;;;;;47.45;45.15;;;;;;;17.09;100.00;100591.63;5062752;28;20496;-75
2023/11/01 02:11:02;;;;;;;42.00;39.95;;;;;;;16.69;100.00;100609.63;5059461;28;20465;-75
2023/11/01 02:13:30;;;;;;;43.30;41.05;;;;;;;16.63;100.00;100636.63;5059695;28;20054;-74
2023/11/01 02:15:57;;;;;;;45.38;42.67;;;;;;;16.46;100.00;100632.13;5063751;28;20052;-74
2023/11/01 02:18:26;;;;;;;37.00;34.80;;;;;;;16.25;100.00;100633.72;5061290;28;20045;-75
2023/11/01 02:20:53;;;;;;;49.47;46.78;;;;;;;16.15;100.00;100654.97;5058591;28;20122;-75
2023/11/01 02:23:32;;;;;;;49.08;45.65;;;;;;;16.02;100.00;100660.66;5061119;28;20060;-77
2023/11/01 02:25:59;;;;;;;54.35;51.75;;;;;;;16.16;100.00;100661.16;5056490;28;20075;-77
2023/11/01 02:28:27;;;;;;;50.05;47.65;;;;;;;16.11;100.00;100639.63;5059762;28;20052;-78
2023/11/01 02:30:56;;;;;;;50.15;47.75;;;;;;;15.87;100.00;100652.38;5057049;28;20052;-77
2023/11/01 02:33:23;;;;;;;47.53;45.22;;;;;;;15.97;100.00;100656.03;5066999;28;20064;-77
2023/11/01 02:35:56;;;;;;;51.95;49.38;;;;;;;15.91;100.00;100648.16;5058329;28;20052;-77
2023/11/01 02:38:23;;;;;;;51.33;48.83;;;;;;;16.04;100.00;100658.56;5058643;28;20045;-77
2023/11/01 02:40:51;;;;;;;38.60;36.60;;;;;;;15.93;100.00;100651.41;5058078;28;20041;-77
2023/11/01 02:43:18;;;;;;;32.22;30.48;;;;;;;15.55;100.00;100667.06;5057433;28;20420;-77
2023/11/01 02:45:46;;;;;;;32.42;30.67;;;;;;;15.57;100.00;100658.78;5063506;28;20057;-74
2023/11/01 02:48:35;;;;;;;48.97;46.50;;;;;;;15.74;100.00;100665.03;5067741;28;20475;-77
2023/11/01 02:51:07;;;;;;;45.60;43.20;;;;;;;15.50;100.00;100664.28;5069462;28;20040;-77
2023/11/01 02:53:34;;;;;;;36.20;34.20;;;;;;;15.39;100.00;100653.63;5065098;28;20049;-77
2023/11/01 02:56:03;;;;;;;49.28;46.67;;;;;;;15.38;100.00;100654.69;5073905;28;20063;-76
2023/11/01 02:58:30;;;;;;;38.33;36.20;;;;;;;15.31;100.00;100660.16;5065893;28;20492;-78
2023/11/01 03:00:57;;;;;;;43.95;41.13;;;;;;;15.23;100.00;100666.72;5064299;28;20041;-77
2023/11/01 03:03:24;;;;;;;41.58;39.28;;;;;;;15.23;100.00;100677.41;5077195;28;20044;-78
2023/11/01 03:05:50;;;;;;;45.47;42.78;;;;;;;15.17;100.00;100669.53;5061461;28;20130;-78
2023/11/01 03:08:17;;;;;;;48.60;45.80;;;;;;;15.27;100.00;100659.03;5069864;28;20052;-77
2023/11/01 03:10:50;;;;;;;40.08;37.53;;;;;;;15.21;100.00;100659.97;5076685;28;20469;-75
2023/11/01 03:13:20;;;;;;;37.80;35.33;;;;;;;15.20;100.00;100658.38;5067263;28;20051;-75
2023/11/01 03:15:47;;;;;;;42.80;40.17;;;;;;;15.16;100.00;100666.06;5075093;28;20044;-75
2023/11/01 03:18:14;;;;;;;44.00;41.20;;;;;;;15.08;100.00;100664.56;5064986;28;20140;-75
2023/11/01 03:20:41;;;;;;;44.45;41.95;;;;;;;15.35;100.00;100661.34;5067665;28;20063;-75
2023/11/01 03:23:07;;;;;;;43.65;41.15;;;;;;;15.20;100.00;100661.03;5063155;28;20048;-75
2023/11/01 03:25:34;;;;;;;93.15;87.88;;;;;;;15.30;100.00;100656.69;5065341;28;20110;-75
2023/11/01 03:28:01;;;;;;;104.53;99.13;;;;;;;15.75;100.00;100647.91;5060221;28;20052;-74
2023/11/01 03:30:29;;;;;;;114.00;108.05;;;;;;;15.07;100.00;100660.25;5061432;28;20041;-75
2023/11/01 03:32:56;;;;;;;95.22;89.45;;;;;;;15.04;100.00;100641.22;5061006;28;20063;-74
2023/11/01 03:35:23;;;;;;;93.63;88.63;;;;;;;14.87;100.00;100644.59;5063605;28;20067;-74
2023/11/01 03:37:50;;;;;;;73.63;69.63;;;;;;;14.84;100.00;100650.41;5062218;28;20439;-75
2023/11/01 03:40:17;;;;;;;80.50;76.10;;;;;;;14.87;100.00;100647.28;5066232;28;20071;-75
2023/11/01 03:42:45;;;;;;;43.05;40.35;;;;;;;14.97;100.00;100651.22;5063807;28;20047;-75
2023/11/01 03:45:12;;;;;;;36.53;34.40;;;;;;;14.95;100.00;100643.44;5068894;28;20055;-74
2023/11/01 03:47:40;;;;;;;36.03;33.40;;;;;;;14.88;100.00;100651.56;5082506;28;20045;-74
2023/11/01 03:50:09;;;;;;;36.22;34.13;;;;;;;15.09;100.00;100642.09;5070874;28;20048;-75
2023/11/01 03:52:36;;;;;;;46.15;43.55;;;;;;;15.01;100.00;100636.34;5072458;28;20485;-75
2023/11/01 03:55:04;;;;;;;48.53;45.47;;;;;;;14.96;100.00;100639.69;5051342;28;20055;-75
2023/11/01 03:57:31;;;;;;;41.88;39.25;;;;;;;14.85;100.00;100637.84;5050943;28;20057;-74
2023/11/01 03:59:58;;;;;;;39.45;37.05;;;;;;;14.78;100.00;100623.81;5059143;28;20053;-74
2023/11/01 04:02:25;;;;;;;39.40;36.75;;;;;;;14.91;100.00;100609.38;5062161;28;20044;-75
2023/11/01 04:04:58;;;;;;;41.00;38.35;;;;;;;15.02;100.00;100600.50;5065065;28;20053;-75
2023/11/01 04:07:25;;;;;;;31.17;28.83;;;;;;;14.93;100.00;100605.41;5055792;28;20412;-75
2023/11/01 04:09:51;;;;;;;28.27;26.30;;;;;;;14.80;100.00;100616.38;5069050;28;20052;-74
2023/11/01 04:12:33;;;;;;;32.88;30.77;;;;;;;15.06;100.00;100609.66;5069192;28;20937;-75
2023/11/01 04:15:21;;;;;;;95.32;90.13;;;;;;;14.74;100.00;100620.81;5069262;28;20523;-77
2023/11/01 04:17:49;;;;;;;84.75;80.10;;;;;;;14.91;100.00;100674.34;5066152;28;20099;-77
2023/11/01 04:20:18;;;;;;;71.70;67.63;;;;;;;14.78;100.00;100679.97;5067707;28;20074;-77
2023/11/01 04:23:00;;;;;;;90.78;85.88;;;;;;;14.55;100.00;100691.47;5065200;28;20059;-74
2023/11/01 04:25:28;;;;;;;70.00;65.90;;;;;;;15.01;100.00;100682.59;5061449;28;20053;-77
2023/11/01 04:27:56;;;;;;;53.67;50.55;;;;;;;14.91;100.00;100692.25;5055003;28;20052;-77
2023/11/01 04:30:23;;;;;;;77.78;73.43;;;;;;;14.98;100.00;100701.00;5063970;28;20075;-77
2023/11/01 04:32:57;;;;;;;76.57;72.47;;;;;;;14.89;100.00;100700.53;5064324;28;20041;-77
2023/11/01 04:35:26;;;;;;;92.18;87.50;;;;;;;16.02;100.00;100693.63;5054656;28;20124;-77
2023/11/01 04:37:54;;;;;;;65.47;62.25;;;;;;;15.72;100.00;100688.53;5060409;28;20442;-77
2023/11/01 04:40:21;;;;;;;56.05;52.83;;;;;;;15.61;100.00;100685.88;5060346;28;20051;-78
2023/11/01 04:42:48;;;;;;;81.90;77.90;;;;;;;15.55;100.00;100679.63;5067515;28;20420;-77
2023/11/01 04:45:15;;;;;;;73.10;69.50;;;;;;;15.25;100.00;100685.19;5057163;28;20431;-77
2023/11/01 04:47:49;;;;;;;60.80;57.60;;;;;;;15.03;100.00;100682.34;5055394;28;20048;-77
2023/11/01 04:50:23;;;;;;;50.80;47.92;;;;;;;14.91;100.00;100681.56;5064483;28;20044;-78
2023/11/01 04:52:51;;;;;;;46.17;43.58;;;;;;;14.98;100.00;100688.44;5062299;28;20052;-78
2023/11/01 04:55:39;;;;;;;27.45;25.88;;;;;;;14.88;100.00;100701.56;5052536;28;20428;-78
2023/11/01 04:58:06;;;;;;;26.20;24.60;;;;;;;15.12;100.00;100696.97;5057846;28;20459;-77
2023/11/01 05:00:33;;;;;;;22.70;21.20;;;;;;;15.00;100.00;100694.34;5050425;28;20064;-78
2023/11/01 05:03:00;;;;;;;23.00;21.50;;;;;;;14.94;100.00;100699.81;5065599;28;20052;-77
2023/11/01 05:05:29;;;;;;;24.33;22.73;;;;;;;16.21;100.00;100699.53;5064253;28;20054;-78
2023/11/01 05:07:57;;;;;;;22.55;20.77;;;;;;;15.23;100.00;100722.91;5053811;28;20507;-78
2023/11/01 05:10:24;;;;;;;22.23;20.73;;;;;;;15.25;100.00;100736.88;5056917;28;20049;-84
2023/11/01 05:12:51;;;;;;;22.77;21.38;;;;;;;15.08;100.00;100727.94;5054214;28;20048;-78
2023/11/01 05:15:18;;;;;;;20.38;19.17;;;;;;;15.52;100.00;100742.50;5060695;28;20041;-78
2023/11/01 05:17:53;;;;;;;21.00;19.80;;;;;;;14.89;100.00;100748.66;5052610;28;20048;-77
2023/11/01 05:20:20;;;;;;;20.17;18.98;;;;;;;15.01;100.00;100748.66;5063419;28;20055;-78
2023/11/01 05:23:02;;;;;;;21.75;20.45;;;;;;;14.89;100.00;100764.72;5059809;28;20040;-78
2023/11/01 05:25:33;;;;;;;21.10;19.90;;;;;;;14.80;100.00;100766.91;5062303;28;20128;-78
2023/11/01 05:27:59;;;;;;;19.13;17.83;;;;;;;15.08;100.00;100771.53;5061021;28;20086;-77
2023/11/01 05:30:26;;;;;;;19.90;18.70;;;;;;;15.10;100.00;100776.69;5057264;28;20041;-78
2023/11/01 05:32:54;;;;;;;21.27;19.98;;;;;;;14.96;100.00;100778.78;5060223;28;20052;-77
2023/11/01 05:35:22;;;;;;;21.60;20.10;;;;;;;15.37;100.00;100781.50;5054900;28;20053;-78
2023/11/01 05:37:53;;;;;;;20.83;19.52;;;;;;;15.29;100.00;100791.53;5065428;28;20063;-78
2023/11/01 05:40:20;;;;;;;41.55;21.02;;;;;;;15.10;100.00;100790.88;5065541;28;20060;-78
2023/11/01 05:42:48;;;;;;;19.83;18.52;;;;;;;15.07;100.00;100785.97;5060040;28;20037;-78
2023/11/01 05:45:16;;;;;;;20.10;18.80;;;;;;;15.10;100.00;100782.03;5064216;28;20052;-78
2023/11/01 05:47:49;;;;;;;20.05;18.65;;;;;;;15.05;100.00;100788.06;5058540;28;20052;-78
2023/11/01 05:50:17;;;;;;;21.20;19.55;;;;;;;15.17;100.00;100787.25;5054340;28;20109;-78
2023/11/01 05:52:44;;;;;;;20.80;19.40;;;;;;;15.31;100.00;100772.53;5053686;28;20049;-78
2023/11/01 05:55:11;;;;;;;21.02;19.63;;;;;;;15.20;100.00;100784.09;5069086;28;20098;-78
2023/11/01 05:57:39;;;;;;;21.23;19.83;;;;;;;15.15;100.00;100786.66;5066960;28;20131;-78
2023/11/01 06:00:08;;;;;;;22.85;21.25;;;;;;;14.98;100.00;100791.91;5062195;28;20045;-78
2023/11/01 06:02:37;;;;;;;22.55;20.95;;;;;;;15.22;100.00;100790.84;5057768;28;20087;-77
2023/11/01 06:05:15;;;;;;;22.60;21.08;;;;;;;15.18;100.00;100803.06;5053845;28;20496;-78
2023/11/01 06:07:42;;;;;;;21.67;20.38;;;;;;;15.01;100.00;100799.47;5055832;28;20060;-78
2023/11/01 06:10:16;;;;;;;22.38;20.88;;;;;;;15.25;100.00;100801.09;5062812;28;20045;-78
2023/11/01 06:12:44;;;;;;;23.10;21.60;;;;;;;15.38;100.00;100820.63;5054203;28;20053;-78
2023/11/01 06:15:11;;;;;;;26.92;25.23;;;;;;;15.64;100.00;100821.94;5067640;28;20048;-78
2023/11/01 06:17:38;;;;;;;21.42;19.92;;;;;;;15.25;100.00;100819.81;5059820;28;20109;-78
2023/11/01 06:20:06;;;;;;;20.90;19.40;;;;;;;15.59;100.00;100814.63;5061695;28;20079;-78
2023/11/01 06:22:34;;;;;;;22.42;20.92;;;;;;;15.62;100.00;100818.72;5061153;28;20500;-78
2023/11/01 06:25:01;;;;;;;24.23;22.52;;;;;;;15.53;100.00;100820.94;5070985;28;20048;-77
2023/11/01 06:27:29;;;;;;;24.70;23.00;;;;;;;15.47;100.00;100821.88;5068956;28;20037;-78
2023/11/01 06:30:09;;;;;;;24.60;22.90;;;;;;;15.73;100.00;100818.72;5072311;28;20047;-78
2023/11/01 06:32:36;;;;;;;24.73;22.98;;;;;;;15.97;100.00;100816.75;5054849;28;20080;-78
2023/11/01 06:35:03;;;;;;;24.63;23.02;;;;;;;16.38;100.00;100814.81;5061937;28;20531;-78
2023/11/01 06:37:37;;;;;;;23.90;22.50;;;;;;;16.71;100.00;100815.88;5062240;28;20593;-78
2023/11/01 06:40:05;;;;;;;23.10;21.80;;;;;;;17.40;100.00;100810.22;5061982;28;20135;-78
2023/11/01 06:42:32;;;;;;;27.88;26.48;;;;;;;17.74;100.00;100818.13;5069887;28;20041;-78
2023/11/01 06:44:59;;;;;;;27.20;25.80;;;;;;;17.19;100.00;100811.81;5069365;28;20048;-78
2023/11/01 06:47:32;;;;;;;24.40;23.10;;;;;;;16.84;100.00;100826.31;5060118;28;20041;-78
2023/11/01 06:49:58;;;;;;;23.13;21.83;;;;;;;17.46;100.00;100829.84;5061990;28;20052;-78
2023/11/01 06:52:25;;;;;;;25.02;23.63;;;;;;;16.58;100.00;100837.63;5068600;28;20051;-78
2023/11/01 06:54:52;;;;;;;23.55;22.05;;;;;;;16.71;100.00;100837.34;5067809;28;20059;-78
2023/11/01 06:57:19;;;;;;;22.00;20.60;;;;;;;17.51;100.00;100835.31;5065543;28;20048;-79
2023/11/01 06:59:48;;;;;;;23.42;22.13;;;;;;;17.26;100.00;100831.22;5059317;28;20064;-78
2023/11/01 07:02:15;;;;;;;23.50;22.20;;;;;;;17.64;100.00;100821.53;5065197;28;20045;-78
2023/11/01 07:04:57;;;;;;;23.45;22.05;;;;;;;17.15;100.00;100830.25;5060368;28;20084;-78
2023/11/01 07:07:24;;;;;;;22.50;21.20;;;;;;;17.60;100.00;100828.44;5055599;28;20057;-79
2023/11/01 07:09:55;;;;;;;21.95;20.65;;;;;;;16.82;100.00;100832.97;5058864;28;20155;-78
2023/11/01 07:12:31;;;;;;;22.10;20.70;;;;;;;17.18;100.00;100831.63;5061308;28;20125;-78
2023/11/01 07:14:58;;;;;;;22.40;21.00;;;;;;;17.30;100.00;100831.53;5058895;28;20056;-75
2023/11/01 07:17:27;;;;;;;23.00;21.70;;;;;;;17.46;100.00;100828.00;5061846;28;20052;-75
2023/11/01 07:19:56;;;;;;;24.10;22.55;;;;;;;18.12;100.00;100827.97;5052798;28;20500;-75
2023/11/01 07:22:23;;;;;;;23.95;22.48;;;;;;;18.25;100.00;100822.22;5066187;28;20060;-75
2023/11/01 07:24:50;;;;;;;23.30;21.80;;;;;;;18.30;100.00;100821.44;5060717;28;20500;-75
2023/11/01 07:27:17;;;;;;;23.67;22.17;;;;;;;18.49;100.00;100820.00;5068074;28;20044;-76
2023/11/01 07:30:07;;;;;;;22.17;20.77;;;;;;;19.05;100.00;100824.22;5068365;28;20060;-74
2023/11/01 07:32:40;;;;;;;21.70;20.40;;;;;;;18.04;100.00;100828.44;5058753;28;20049;-78
2023/11/01 07:35:17;;;;;;;23.10;20.98;;;;;;;19.19;100.00;100828.88;5060762;28;20049;-78
2023/11/01 07:37:44;;;;;;;22.23;20.92;;;;;;;18.92;100.00;100828.16;5065057;28;20118;-75
2023/11/01 07:40:11;;;;;;;22.17;20.60;;;;;;;18.97;100.00;100837.09;5067795;28;20055;-76
2023/11/01 07:42:38;;;;;;;22.20;20.90;;;;;;;18.34;100.00;100848.66;5056854;28;20062;-78
2023/11/01 07:45:16;;;;;;;23.08;21.67;;;;;;;17.89;100.00;100841.72;5065604;28;20044;-75
2023/11/01 07:47:43;;;;;;;22.70;21.20;;;;;;;19.33;100.00;100839.97;5064929;28;20051;-78
2023/11/01 07:50:11;;;;;;;22.73;21.33;;;;;;;18.51;100.00;100841.25;5069825;28;20139;-75
2023/11/01 07:52:45;;;;;;;22.15;20.95;;;;;;;19.03;100.00;100840.59;5056873;28;20060;-78
2023/11/01 07:55:14;;;;;;;21.58;20.23;;;;;;;19.55;100.00;100849.81;5061442;28;20052;-78
2023/11/01 07:57:45;;;;;;;21.27;19.88;;;;;;;19.28;100.00;100847.25;5065336;28;20052;-79
2023/11/01 08:00:29;;;;;;;22.30;21.00;;;;;;;19.03;100.00;100853.25;5061707;28;20441;-78
2023/11/01 08:03:05;;;;;;;23.65;22.15;;;;;;;19.79;100.00;100860.97;5063123;28;20053;-78
2023/11/01 08:05:41;;;;;;;23.48;21.98;;;;;;;19.15;100.00;100851.19;5059544;28;20056;-78
2023/11/01 08:08:18;;;;;;;22.90;21.40;;;;;;;19.51;100.00;100862.16;5061285;28;20044;-79
2023/11/01 08:10:53;;;;;;;24.55;23.05;;;;;;;19.78;100.00;100862.03;5054335;28;20049;-78
2023/11/01 08:13:20;;;;;;;24.00;22.50;;;;;;;20.48;100.00;100862.50;5068535;28;20413;-79
2023/11/01 08:15:52;;;;;;;23.83;22.33;;;;;;;21.26;100.00;100863.00;5061272;28;20052;-78
2023/11/01 08:18:19;;;;;;;23.60;22.10;;;;;;;19.49;100.00;100862.44;5052009;28;20048;-78
2023/11/01 08:20:53;;;;;;;23.25;21.65;;;;;;;20.19;100.00;100856.78;5059066;28;20045;-78
2023/11/01 08:23:39;;;;;;;22.13;20.63;;;;;;;20.31;100.00;100865.44;5062519;28;20144;-78
2023/11/01 08:26:06;;;;;;;22.67;21.20;;;;;;;20.46;100.00;100867.34;5051530;28;20060;-78
2023/11/01 08:28:33;;;;;;;28.50;26.70;;;;;;;20.20;100.00;100867.31;5051403;28;20053;-79
2023/11/01 08:31:01;;;;;;;35.88;33.78;;;;;;;21.08;100.00;100865.47;5051324;28;20057;-76
2023/11/01 08:33:28;;;;;;;36.28;34.08;;;;;;;22.26;100.00;100871.31;5051162;28;20052;-76
2023/11/01 08:36:05;;;;;;;37.72;35.53;;;;;;;21.27;100.00;100877.31;5051602;28;20059;-80
2023/11/01 08:38:32;;;;;;;38.08;35.97;;;;;;;20.83;100.00;100860.94;5059871;28;20049;-75
2023/11/01 08:41:01;;;;;;;38.85;36.75;;;;;;;20.78;100.00;100872.50;5054475;28;20435;-75
2023/11/01 08:43:28;;;;;;;34.60;32.70;;;;;;;21.19;100.00;100876.00;5063298;28;20056;-76
2023/11/01 08:45:55;;;;;;;35.58;33.67;;;;;;;20.94;100.00;100871.44;5066516;28;20053;-79
2023/11/01 08:48:22;;;;;;;34.92;33.03;;;;;;;20.32;100.00;100873.25;5061525;28;20045;-79
2023/11/01 08:50:49;;;;;;;41.90;39.30;;;;;;;20.56;100.00;100865.50;5063385;28;20430;-79
2023/11/01 08:53:16;;;;;;;37.42;35.45;;;;;;;21.32;100.00;100871.91;5057948;28;20052;-75
2023/11/01 08:56:03;;;;;;;32.13;30.23;;;;;;;20.64;100.00;100869.56;5065702;28;20501;-75
2023/11/01 08:59:17;;;;;;;32.55;30.75;;;;;;;21.09;100.00;100883.28;5055742;28;20045;-78
2023/11/01 09:01:44;;;;;;;37.45;35.45;;;;;;;20.89;100.00;100881.44;5057850;28;20055;-75
2023/11/01 09:04:13;;;;;;;36.75;34.75;;;;;;;21.58;100.00;100877.28;5049552;28;20500;-75
2023/11/01 09:06:40;;;;;;;39.83;37.72;;;;;;;21.56;100.00;100866.75;5050707;28;20049;-79
2023/11/01 09:09:18;;;;;;;39.10;36.70;;;;;;;22.94;100.00;100863.25;5050593;28;20053;-78
2023/11/01 09:11:46;;;;;;;37.30;35.05;;;;;;;21.96;100.00;100867.66;5050719;28;20051;-75
2023/11/01 09:14:13;;;;;;;33.80;31.70;;;;;;;22.41;100.00;100869.31;5055929;28;20068;-75
2023/11/01 09:16:40;;;;;;;37.75;35.55;;;;;;;21.52;100.00;100868.41;5069282;28;20048;-75
2023/11/01 09:19:07;;;;;;;42.80;40.70;;;;;;;21.81;100.00;100878.53;5050132;28;20049;-78
2023/11/01 09:21:37;;;;;;;42.63;40.53;;;;;;;22.22;100.00;100872.97;5065858;28;20523;-78
2023/11/01 09:24:05;;;;;;;40.90;38.80;;;;;;;22.71;100.00;100859.34;5060461;28;20095;-79
2023/11/01 09:26:34;;;;;;;37.08;35.08;;;;;;;22.05;100.00;100870.59;5055745;28;20057;-78
2023/11/01 09:29:02;;;;;;;33.70;31.80;;;;;;;23.03;100.00;100853.41;5067713;28;20052;-78
2023/11/01 09:31:36;;;;;;;33.40;31.50;;;;;;;23.46;100.00;100860.81;5056420;28;20056;-78
2023/11/01 09:34:04;;;;;;;36.45;34.42;;;;;;;21.90;100.00;100861.47;5057299;28;20530;-78
2023/11/01 09:36:38;;;;;;;21.08;19.67;;;;;;;21.00;100.00;100873.06;5058604;28;20127;-78
2023/11/01 09:39:13;;;;;;;21.60;19.98;;;;;;;20.93;100.00;100864.41;5058014;28;20133;-78
2023/11/01 09:41:50;;;;;;;23.42;21.83;;;;;;;21.05;100.00;100861.44;5068942;28;20063;-77
2023/11/01 09:44:22;;;;;;;24.35;22.73;;;;;;;20.77;100.00;100854.72;5057929;28;20091;-78
2023/11/01 09:46:57;;;;;;;23.13;21.37;;;;;;;20.95;100.00;100864.97;5057937;28;20067;-79
2023/11/01 09:49:26;;;;;;;30.52;28.83;;;;;;;21.01;100.00;100866.56;5055219;28;20057;-79
2023/11/01 09:52:01;;;;;;;34.53;32.63;;;;;;;20.74;100.00;100866.84;5054248;28;20043;-78
2023/11/01 09:54:28;;;;;;;34.58;32.58;;;;;;;21.38;100.00;100854.63;5062039;28;20098;-78
2023/11/01 09:56:56;;;;;;;24.75;22.95;;;;;;;21.61;100.00;100858.63;5053692;28;20045;-79
2023/11/01 09:59:25;;;;;;;25.25;23.45;;;;;;;22.60;100.00;100841.56;5054625;28;20102;-78
2023/11/01 10:01:54;;;;;;;26.42;24.70;;;;;;;22.52;100.00;100842.19;5056774;28;20044;-78
2023/11/01 10:04:28;;;;;;;24.92;23.23;;;;;;;22.73;100.00;100846.34;5056536;28;20063;-78
2023/11/01 10:06:55;;;;;;;32.58;30.88;;;;;;;22.11;100.00;100843.22;5062828;28;20079;-75
2023/11/01 10:09:22;;;;;;;32.22;30.52;;;;;;;22.52;100.00;100844.91;5058753;28;20496;-77
2023/11/01 10:11:49;;;;;;;33.25;31.50;;;;;;;22.25;100.00;100839.94;5060552;28;20056;-78
2023/11/01 10:14:28;;;;;;;34.28;32.47;;;;;;;23.47;100.00;100830.69;5060428;28;20057;-78
2023/11/01 10:16:57;;;;;;;31.27;29.58;;;;;;;24.14;100.00;100835.25;5054337;28;20254;-78
2023/11/01 10:19:34;;;;;;;32.63;30.92;;;;;;;22.53;100.00;100836.47;5052816;28;20110;-78
2023/11/01 10:22:06;;;;;;;31.13;29.42;;;;;;;23.05;100.00;100836.84;5052870;28;20056;-79
2023/11/01 10:24:33;;;;;;;34.50;32.60;;;;;;;22.78;100.00;100827.31;5049619;28;20182;-79
2023/11/01 10:27:02;;;;;;;36.42;34.42;;;;;;;22.37;100.00;100835.00;5057084;28;20052;-78
2023/11/01 10:29:30;;;;;;;34.03;32.22;;;;;;;22.87;100.00;100830.22;5058110;28;20080;-78
2023/11/01 10:31:59;;;;;;;37.75;35.75;;;;;;;22.92;100.00;100837.50;5060804;28;20053;-78
2023/11/01 10:34:30;;;;;;;38.53;36.33;;;;;;;24.65;100.00;100832.59;5062215;28;20523;-78
2023/11/01 10:36:58;;;;;;;37.67;35.47;;;;;;;22.91;100.00;100831.28;5068170;28;20048;-78
2023/11/01 10:39:26;;;;;;;37.03;34.83;;;;;;;23.12;100.00;100839.22;5063448;28;20049;-78
2023/11/01 10:41:54;;;;;;;33.70;31.60;;;;;;;22.57;100.00;100831.31;5059376;28;20428;-75
2023/11/01 10:44:25;;;;;;;31.10;29.00;;;;;;;22.32;100.00;100837.72;5064274;28;20055;-75
2023/11/01 10:47:09;;;;;;;33.33;31.33;;;;;;;22.51;100.00;100848.66;5051201;28;20578;-74
2023/11/01 10:49:43;;;;;;;41.60;39.40;;;;;;;22.78;100.00;100834.63;5053438;28;20057;-75
2023/11/01 10:52:12;;;;;;;39.08;37.08;;;;;;;22.46;100.00;100838.72;5048996;28;20102;-75
2023/11/01 10:54:52;;;;;;;36.95;34.30;;;;;;;22.90;100.00;100836.97;5049053;28;20124;-74
2023/11/01 10:57:20;;;;;;;39.13;37.13;;;;;;;22.57;100.00;100844.84;5049062;28;20049;-75
2023/11/01 10:59:54;;;;;;;24.77;23.27;;;;;;;22.28;100.00;100833.97;5055357;28;20052;-75
2023/11/01 11:02:25;;;;;;;29.63;27.52;;;;;;;22.06;100.00;100831.63;5054542;28;20051;-75
2023/11/01 11:04:58;;;;;;;23.75;22.17;;;;;;;21.94;100.00;100848.22;5062289;28;20143;-75
2023/11/01 11:07:34;;;;;;;25.52;24.10;;;;;;;22.48;100.00;100841.13;5059131;28;20136;-75
2023/11/01 11:10:20;;;;;;;23.77;22.38;;;;;;;23.58;100.00;100831.38;5063161;28;20146;-75
2023/11/01 11:16:18;;;;;;;23.95;22.35;;;;;;;22.30;100.00;100845.31;5068699;28;20532;-75
2023/11/01 11:18:59;;;;;;;29.98;28.38;;;;;;;22.79;100.00;100844.41;5063503;28;20071;-75